Time;durP1;ratioP1;P1;durP2;ratioP2;P2;SDS_P1;SDS_P2;PMS_P1;PMS_P2;Temp;Humidity;BMP_temperature;BMP_pressure;BME280_temperature;BME280_humidity;BME280_pressure;Samples;Min_cycle;Max_cycle;Signal;HPM_P1;HPM_P2
2021/12/17 00:01:00;;;;;;;29.57;16.77;;;;;;;2.45;100.00;95484.38;5064734;28;20307;-78
2021/12/17 00:03:39;;;;;;;31.73;17.03;;;;;;;2.38;100.00;95485.09;5071149;28;20892;-77
2021/12/17 00:06:18;;;;;;;26.70;15.77;;;;;;;2.39;100.00;95492.66;5071450;28;20205;-77
2021/12/17 00:08:49;;;;;;;28.27;16.47;;;;;;;2.42;100.00;95484.66;5070623;28;20201;-77
2021/12/17 00:11:20;;;;;;;29.43;16.67;;;;;;;2.45;100.00;95488.69;5070920;28;20197;-76
2021/12/17 00:13:50;;;;;;;26.87;15.53;;;;;;;2.39;100.00;95489.28;5071394;28;20659;-76
2021/12/17 00:16:26;;;;;;;24.63;14.33;;;;;;;2.43;100.00;95485.44;5070516;28;20205;-77
2021/12/17 00:19:11;;;;;;;27.17;14.87;;;;;;;2.41;100.00;95490.75;5070316;28;20270;-78
2021/12/17 00:44:12;;;;;;;20.70;12.27;;;;;;;2.32;100.00;95485.69;5071162;28;20205;-79
2021/12/17 00:49:33;;;;;;;19.83;12.07;;;;;;;2.33;100.00;95484.75;5070636;28;20206;-78
2021/12/17 00:52:06;;;;;;;23.83;12.80;;;;;;;2.36;100.00;95479.31;5071589;28;20197;-79
2021/12/17 00:54:38;;;;;;;25.20;13.87;;;;;;;2.39;100.00;95489.28;5071069;28;20189;-78
2021/12/17 00:57:11;;;;;;;25.60;14.27;;;;;;;2.42;100.00;95489.00;5070304;28;20238;-78
2021/12/17 00:59:40;;;;;;;25.40;14.37;;;;;;;2.45;100.00;95483.56;5068889;28;20256;-78
2021/12/17 01:02:13;;;;;;;26.70;14.33;;;;;;;2.48;100.00;95485.84;5069910;28;20503;-78
2021/12/17 01:04:44;;;;;;;26.57;14.03;;;;;;;2.41;100.00;95474.53;5070680;28;20233;-76
2021/12/17 01:07:13;;;;;;;24.97;13.27;;;;;;;2.53;100.00;95489.56;5068801;28;20195;-74
2021/12/17 01:09:45;;;;;;;26.00;14.03;;;;;;;2.57;100.00;95488.28;5068232;28;20953;-75
2021/12/17 01:12:15;;;;;;;25.60;14.03;;;;;;;2.48;100.00;95470.44;5069538;28;20208;-74
2021/12/17 01:14:44;;;;;;;26.37;14.33;;;;;;;2.55;100.00;95481.72;5068868;28;20199;-76
2021/12/17 01:17:15;;;;;;;25.00;13.93;;;;;;;2.59;100.00;95481.28;5069787;28;20198;-74
2021/12/17 01:23:02;;;;;;;23.27;11.43;;;;;;;2.57;100.00;95482.38;5086442;28;20531;-74
2021/12/17 01:25:49;;;;;;;21.37;11.77;;;;;;;2.53;100.00;95471.59;5082433;28;20207;-74
2021/12/17 01:36:36;;;;;;;13.23;8.00;;;;;;;2.63;100.00;95464.63;5086381;28;20245;-75
2021/12/17 01:44:40;;;;;;;16.13;8.80;;;;;;;2.70;100.00;95447.69;5085556;28;20249;-75
2021/12/17 01:47:09;;;;;;;13.03;8.63;;;;;;;2.70;100.00;95452.00;5085543;28;20201;-73
2021/12/17 02:00:50;;;;;;;14.93;8.87;;;;;;;2.67;100.00;95450.56;5081608;28;20239;-75
2021/12/17 02:03:18;;;;;;;13.00;7.90;;;;;;;2.67;100.00;95458.25;5085413;28;20222;-74
2021/12/17 02:05:46;;;;;;;11.67;7.43;;;;;;;2.71;100.00;95456.19;5085709;28;20614;-75
2021/12/17 02:08:14;;;;;;;13.83;8.80;;;;;;;2.76;100.00;95453.97;5085394;28;20207;-74
2021/12/17 02:11:24;;;;;;;12.80;8.10;;;;;;;2.73;100.00;95442.25;5086101;28;20200;-75
2021/12/17 02:19:42;;;;;;;16.00;9.43;;;;;;;2.77;100.00;95446.09;5085416;28;20562;-74
2021/12/17 02:31:00;;;;;;;12.77;8.07;;;;;;;2.92;100.00;95441.22;5106713;28;20211;-74
2021/12/17 02:33:29;;;;;;;14.47;8.87;;;;;;;2.92;100.00;95437.84;5108046;27;20200;-75
2021/12/17 02:36:00;;;;;;;13.60;8.57;;;;;;;2.95;100.00;95437.56;5106892;28;20208;-75
2021/12/17 02:38:36;;;;;;;16.87;10.60;;;;;;;2.99;100.00;95438.88;5105259;28;20711;-75
2021/12/17 02:46:40;;;;;;;18.23;11.10;;;;;;;2.99;100.00;95437.13;5106445;28;20310;-74
2021/12/17 02:49:09;;;;;;;20.33;13.23;;;;;;;3.01;100.00;95435.19;5107466;27;20201;-75
2021/12/17 02:51:37;;;;;;;18.40;10.73;;;;;;;3.07;100.00;95433.78;5105747;28;20215;-74
2021/12/17 02:54:05;;;;;;;14.43;8.83;;;;;;;3.10;100.00;95443.75;5104721;28;20199;-78
2021/12/17 02:56:36;;;;;;;18.30;9.70;;;;;;;3.12;100.00;95436.69;5101191;28;20204;-78
2021/12/17 02:59:05;;;;;;;15.97;9.57;;;;;;;3.05;100.00;95433.13;5106206;28;20215;-77
2021/12/17 03:01:34;;;;;;;19.73;10.47;;;;;;;3.08;100.00;95431.06;5106672;28;20213;-77
2021/12/17 03:04:04;;;;;;;18.97;11.03;;;;;;;3.12;100.00;95439.25;5105924;28;20223;-75
2021/12/17 03:06:33;;;;;;;17.97;10.20;;;;;;;3.08;100.00;95431.06;5108128;28;20227;-74
2021/12/17 03:09:04;;;;;;;14.60;8.43;;;;;;;3.04;100.00;95434.88;5105278;28;20257;-74
2021/12/17 03:11:33;;;;;;;14.00;8.90;;;;;;;2.95;100.00;95433.22;5106056;28;20207;-74
2021/12/17 03:14:07;;;;;;;17.03;9.73;;;;;;;2.88;100.00;95439.94;5103551;28;20203;-74
2021/12/17 03:16:40;;;;;;;17.97;10.83;;;;;;;2.90;100.00;95430.31;5104144;28;20207;-74
2021/12/17 03:19:13;;;;;;;15.17;9.30;;;;;;;2.90;100.00;95427.75;5103410;28;20206;-75
2021/12/17 03:24:34;;;;;;;16.40;9.90;;;;;;;2.53;100.00;95422.06;5098911;28;20317;-75
2021/12/17 03:27:05;;;;;;;17.43;10.87;;;;;;;2.45;100.00;95420.25;5103675;27;20231;-76
2021/12/17 03:29:33;;;;;;;16.87;11.00;;;;;;;2.43;100.00;95424.72;5102100;28;20200;-75
2021/12/17 03:32:02;;;;;;;20.43;12.03;;;;;;;2.41;100.00;95416.38;5101235;28;20211;-75
2021/12/17 03:34:31;;;;;;;17.80;11.17;;;;;;;2.48;100.00;95417.38;5100768;28;20188;-74
2021/12/17 03:37:01;;;;;;;19.33;10.93;;;;;;;2.59;100.00;95416.34;5089524;28;20202;-75
2021/12/17 03:39:31;;;;;;;19.30;11.27;;;;;;;2.59;100.00;95406.88;5089932;28;20238;-75
2021/12/17 03:42:00;;;;;;;18.40;10.33;;;;;;;2.60;100.00;95402.53;5087885;27;20210;-74
2021/12/17 03:44:32;;;;;;;16.30;10.10;;;;;;;2.42;100.00;95394.09;5088613;28;20219;-78
2021/12/17 03:47:03;;;;;;;19.00;11.17;;;;;;;2.51;100.00;95404.25;5087470;28;20304;-81
2021/12/17 03:49:43;;;;;;;30.07;16.60;;;;;;;2.56;100.00;95404.63;5082995;28;20202;-79
2021/12/17 03:52:11;;;;;;;24.50;14.07;;;;;;;2.67;100.00;95396.66;5091816;28;20232;-79
2021/12/17 03:54:49;;;;;;;20.90;12.67;;;;;;;2.73;100.00;95392.69;5097840;28;20204;-79
2021/12/17 03:57:19;;;;;;;22.57;12.87;;;;;;;2.79;100.00;95392.91;5088409;28;20710;-78
2021/12/17 03:59:49;;;;;;;22.00;12.40;;;;;;;2.80;100.00;95396.25;5088273;28;20298;-78
2021/12/17 04:02:18;;;;;;;22.53;12.70;;;;;;;2.77;100.00;95396.56;5088743;28;20197;-78
2021/12/17 04:04:47;;;;;;;23.80;13.20;;;;;;;2.78;100.00;95385.34;5088629;28;20228;-77
2021/12/17 04:07:16;;;;;;;26.20;13.70;;;;;;;2.79;100.00;95380.06;5091795;28;20238;-80
2021/12/17 04:09:44;;;;;;;26.10;13.90;;;;;;;2.78;100.00;95385.34;5095929;28;20674;-71
2021/12/17 04:12:16;;;;;;;29.07;14.70;;;;;;;2.77;100.00;95366.56;5086410;28;20205;-71
2021/12/17 04:14:46;;;;;;;29.40;15.50;;;;;;;2.78;100.00;95375.88;5086961;28;20194;-72
2021/12/17 04:17:22;;;;;;;32.47;16.40;;;;;;;2.80;100.00;95375.72;5084032;28;20670;-71
2021/12/17 04:19:50;;;;;;;26.33;14.40;;;;;;;2.84;100.00;95369.31;5087507;28;20196;-72
2021/12/17 04:22:19;;;;;;;23.97;13.93;;;;;;;2.86;100.00;95363.09;5086442;28;20340;-71
2021/12/17 04:24:53;;;;;;;29.27;15.07;;;;;;;2.88;100.00;95362.94;5089351;28;20237;-71
2021/12/17 04:27:22;;;;;;;36.60;18.97;;;;;;;2.86;100.00;95357.13;5088198;28;20207;-73
2021/12/17 04:29:51;;;;;;;28.13;15.90;;;;;;;2.88;100.00;95346.72;5085573;28;20199;-72
2021/12/17 04:32:20;;;;;;;32.20;16.40;;;;;;;2.88;100.00;95342.41;5097954;28;20244;-72
2021/12/17 04:34:47;;;;;;;31.17;17.77;;;;;;;2.86;100.00;95334.03;5084386;28;20715;-72
2021/12/17 04:37:15;;;;;;;30.17;18.00;;;;;;;2.85;100.00;95337.59;5090069;28;20234;-71
2021/12/17 04:39:43;;;;;;;29.17;16.27;;;;;;;2.83;100.00;95340.28;5089769;28;20204;-71
2021/12/17 04:42:16;;;;;;;35.93;19.73;;;;;;;2.86;100.00;95339.19;5089192;28;20210;-73
2021/12/17 04:44:47;;;;;;;37.83;20.17;;;;;;;2.85;100.00;95329.88;5089203;28;20232;-73
2021/12/17 04:58:09;;;;;;;27.30;14.33;;;;;;;2.43;100.00;95318.75;5067360;28;20201;-71
2021/12/17 05:00:36;;;;;;;21.83;12.43;;;;;;;2.40;100.00;95322.44;5088699;28;20231;-71
2021/12/17 05:03:03;;;;;;;19.27;10.57;;;;;;;2.41;100.00;95333.50;5089110;28;20205;-72
2021/12/17 05:05:33;;;;;;;14.67;9.47;;;;;;;2.41;100.00;95329.16;5089540;28;20229;-71
2021/12/17 05:08:04;;;;;;;14.17;9.43;;;;;;;2.38;100.00;95326.09;5088483;28;20194;-72
2021/12/17 05:10:49;;;;;;;16.40;10.37;;;;;;;2.38;100.00;95329.47;5089040;28;20286;-72
2021/12/17 05:18:52;;;;;;;13.63;8.70;;;;;;;2.38;100.00;95328.66;5088639;28;20210;-71
2021/12/17 05:21:23;;;;;;;16.87;9.93;;;;;;;2.39;100.00;95335.41;5087772;28;20238;-71
2021/12/17 05:23:51;;;;;;;16.33;9.20;;;;;;;2.42;100.00;95328.22;5087955;28;20672;-72
2021/12/17 05:26:22;;;;;;;16.07;8.27;;;;;;;2.62;100.00;95333.94;5088565;28;20206;-71
2021/12/17 05:28:52;;;;;;;14.33;7.80;;;;;;;2.51;100.00;95336.78;5088392;28;20208;-73
2021/12/17 05:31:21;;;;;;;12.10;7.53;;;;;;;2.39;100.00;95333.66;5088137;28;20205;-71
2021/12/17 05:33:50;;;;;;;14.03;8.17;;;;;;;2.41;100.00;95330.94;5085484;28;20196;-71
2021/12/17 05:36:20;;;;;;;10.37;7.20;;;;;;;2.40;100.00;95324.19;5087357;28;20248;-72
2021/12/17 05:38:50;;;;;;;12.27;7.90;;;;;;;2.43;100.00;95319.56;5085770;28;21351;-71
2021/12/17 05:41:18;;;;;;;14.20;9.10;;;;;;;2.40;100.00;95321.63;5090788;28;20210;-71
2021/12/17 05:43:54;;;;;;;17.70;10.53;;;;;;;2.47;100.00;95318.31;5083259;28;20229;-72
2021/12/17 05:46:36;;;;;;;21.17;12.60;;;;;;;2.56;100.00;95316.59;5084868;28;20575;-71
2021/12/17 05:49:04;;;;;;;27.20;15.27;;;;;;;2.63;100.00;95318.38;5084511;28;20545;-71
2021/12/17 05:51:33;;;;;;;37.13;20.53;;;;;;;2.73;100.00;95315.72;5085483;28;20277;-71
2021/12/17 05:54:02;;;;;;;43.10;21.10;;;;;;;2.82;100.00;95307.09;5084691;28;21079;-71
2021/12/17 05:56:30;;;;;;;35.63;19.90;;;;;;;2.85;100.00;95325.56;5087050;28;20313;-70
2021/12/17 05:58:57;;;;;;;37.50;19.30;;;;;;;2.97;100.00;95328.66;5088688;28;20249;-73
2021/12/17 06:01:24;;;;;;;33.03;17.27;;;;;;;3.00;100.00;95336.03;5084176;28;20208;-72
2021/12/17 06:03:55;;;;;;;33.13;15.37;;;;;;;2.93;100.00;95337.63;5080112;28;20196;-72
2021/12/17 06:06:30;;;;;;;27.97;14.97;;;;;;;2.85;100.00;95348.66;5069543;28;20203;-77
2021/12/17 06:09:00;;;;;;;17.80;10.13;;;;;;;2.70;100.00;95347.63;5083250;28;20207;-74
2021/12/17 06:11:30;;;;;;;15.00;8.43;;;;;;;2.74;100.00;95343.00;5089821;28;20740;-75
2021/12/17 06:13:59;;;;;;;12.97;7.90;;;;;;;2.77;100.00;95351.16;5087284;28;20231;-72
2021/12/17 06:16:28;;;;;;;11.87;6.97;;;;;;;2.72;100.00;95355.16;5085667;28;20204;-73
2021/12/17 06:18:56;;;;;;;13.33;7.73;;;;;;;2.64;100.00;95363.63;5087551;28;20686;-73
2021/12/17 06:21:24;;;;;;;16.37;9.60;;;;;;;2.65;100.00;95357.53;5087762;28;20232;-73
2021/12/17 06:23:52;;;;;;;21.57;11.40;;;;;;;2.68;100.00;95364.13;5087303;28;20235;-71
2021/12/17 06:26:25;;;;;;;22.67;11.77;;;;;;;2.79;100.00;95362.09;5084696;28;20199;-71
2021/12/17 06:28:55;;;;;;;17.73;10.80;;;;;;;2.72;100.00;95350.00;5087677;28;20199;-71
2021/12/17 06:31:26;;;;;;;19.67;10.80;;;;;;;2.77;100.00;95346.03;5088357;28;20291;-72
2021/12/17 06:33:54;;;;;;;22.87;12.70;;;;;;;2.92;100.00;95351.41;5087852;28;20201;-72
2021/12/17 06:36:27;;;;;;;28.40;14.20;;;;;;;2.83;100.00;95347.19;5087781;28;20209;-71
2021/12/17 06:38:55;;;;;;;23.33;12.93;;;;;;;2.77;100.00;95352.94;5088228;28;20234;-73
2021/12/17 06:41:23;;;;;;;22.57;11.03;;;;;;;2.79;100.00;95353.59;5088072;28;20208;-71
2021/12/17 06:43:55;;;;;;;19.43;11.17;;;;;;;2.75;100.00;95344.56;5089309;28;20228;-73
2021/12/17 06:46:34;;;;;;;23.63;12.60;;;;;;;2.69;100.00;95337.50;5082655;28;20200;-72
2021/12/17 06:49:19;;;;;;;17.67;10.00;;;;;;;2.65;100.00;95349.03;5088486;28;20265;-71
2021/12/17 06:54:49;;;;;;;18.07;10.40;;;;;;;2.71;100.00;95351.00;5088531;28;20220;-72
2021/12/17 06:58:07;;;;;;;17.70;9.97;;;;;;;2.73;100.00;95351.63;5088655;28;20257;-71
2021/12/17 07:00:48;;;;;;;14.57;8.47;;;;;;;2.63;100.00;95354.28;5089140;28;20213;-71
2021/12/17 07:06:10;;;;;;;17.43;9.90;;;;;;;2.65;100.00;95351.59;5089649;28;20811;-73
2021/12/17 07:11:52;;;;;;;21.57;12.00;;;;;;;2.86;100.00;95355.38;5092685;28;20263;-73
2021/12/17 07:17:21;;;;;;;17.97;10.47;;;;;;;2.96;100.00;95359.59;5093211;28;20256;-71
2021/12/17 07:20:47;;;;;;;11.43;8.07;;;;;;;2.83;100.00;95360.81;5093077;28;20200;-71
2021/12/17 07:23:09;;;;;;;12.27;6.80;;;;;;;2.72;100.00;95355.97;5092500;28;20203;-73
2021/12/17 07:28:53;;;;;;;14.60;8.83;;;;;;;2.59;100.00;95352.19;5092955;28;20204;-72
2021/12/17 07:34:11;;;;;;;19.87;11.93;;;;;;;2.73;100.00;95338.81;5087381;28;20550;-72
2021/12/17 07:36:42;;;;;;;19.07;11.77;;;;;;;2.79;100.00;95333.06;5092448;28;20200;-72
2021/12/17 07:39:10;;;;;;;25.27;15.97;;;;;;;2.86;100.00;95331.47;5092369;28;20608;-72
2021/12/17 07:41:39;;;;;;;32.63;17.73;;;;;;;2.83;100.00;95340.28;5092362;28;20201;-71
2021/12/17 07:44:08;;;;;;;22.80;14.23;;;;;;;2.83;100.00;95332.59;5092613;28;20200;-71
2021/12/17 07:46:42;;;;;;;26.00;15.00;;;;;;;2.79;100.00;95330.50;5092805;28;20598;-71
2021/12/17 07:49:12;;;;;;;34.57;19.20;;;;;;;2.78;100.00;95327.13;5092591;28;20197;-71
2021/12/17 07:51:42;;;;;;;32.23;17.87;;;;;;;2.88;100.00;95341.59;5092188;28;20236;-71
2021/12/17 07:54:10;;;;;;;28.63;17.50;;;;;;;2.91;100.00;95344.69;5092122;28;20206;-71
2021/12/17 07:56:38;;;;;;;29.53;17.50;;;;;;;2.93;100.00;95332.47;5093372;28;20198;-71
2021/12/17 07:59:08;;;;;;;29.20;17.40;;;;;;;2.99;100.00;95338.75;5092300;28;20204;-71
2021/12/17 08:01:36;;;;;;;23.80;14.23;;;;;;;2.97;100.00;95340.69;5091752;28;20594;-71
2021/12/17 08:04:06;;;;;;;27.00;14.63;;;;;;;3.00;100.00;95341.16;5084664;28;20202;-71
2021/12/17 08:06:37;;;;;;;26.37;13.90;;;;;;;2.92;100.00;95343.69;5091270;28;20726;-72
2021/12/17 08:09:08;;;;;;;23.10;13.20;;;;;;;2.82;100.00;95354.09;5092689;28;20259;-71
2021/12/17 08:11:40;;;;;;;26.93;15.00;;;;;;;2.88;100.00;95354.44;5091988;28;20253;-72
2021/12/17 08:14:12;;;;;;;18.50;11.53;;;;;;;2.83;100.00;95353.13;5091602;28;20212;-72
2021/12/17 08:16:45;;;;;;;22.27;13.27;;;;;;;2.95;100.00;95345.97;5092123;28;20251;-71
2021/12/17 08:24:58;;;;;;;40.37;21.80;;;;;;;3.03;100.00;95338.28;5092174;28;20312;-71
2021/12/17 08:27:44;;;;;;;38.77;21.63;;;;;;;3.05;100.00;95335.56;5091537;28;20269;-71
2021/12/17 08:30:28;;;;;;;42.97;25.77;;;;;;;3.12;100.00;95328.84;5091830;28;20562;-71
2021/12/17 08:32:57;;;;;;;42.93;25.20;;;;;;;3.17;100.00;95345.41;5091823;28;20238;-75
2021/12/17 08:35:26;;;;;;;50.00;26.93;;;;;;;3.19;100.00;95338.34;5092030;28;20291;-74
2021/12/17 08:37:57;;;;;;;54.97;29.13;;;;;;;3.22;100.00;95326.97;5092296;28;20206;-76
2021/12/17 08:40:29;;;;;;;57.37;32.00;;;;;;;3.29;100.00;95331.31;5091985;28;20677;-75
2021/12/17 08:42:58;;;;;;;46.77;27.37;;;;;;;3.02;100.00;95292.25;5085712;28;20653;-77
2021/12/17 08:45:27;;;;;;;47.67;26.73;;;;;;;3.26;100.00;95315.44;5078642;28;20224;-76
2021/12/17 08:48:03;;;;;;;36.27;22.33;;;;;;;3.25;100.00;95299.22;5072169;28;20794;-78
2021/12/17 08:50:32;;;;;;;30.37;18.33;;;;;;;3.23;100.00;95308.81;5085690;28;20354;-79
2021/12/17 08:52:59;;;;;;;21.47;11.80;;;;;;;3.25;100.00;95313.81;5092250;28;20678;-78
2021/12/17 08:55:31;;;;;;;21.97;13.70;;;;;;;3.33;100.00;95313.81;5090279;28;20920;-79
2021/12/17 08:58:04;;;;;;;24.70;13.90;;;;;;;3.29;100.00;95308.19;5087564;28;20286;-78
2021/12/17 09:00:33;;;;;;;17.60;10.30;;;;;;;3.32;100.00;95313.03;5092620;28;20200;-78
2021/12/17 09:03:09;;;;;;;21.23;11.13;;;;;;;3.28;100.00;95304.03;5086129;28;20203;-78
2021/12/17 09:05:47;;;;;;;24.50;14.23;;;;;;;3.24;100.00;95310.44;5085521;28;20211;-77
2021/12/17 09:08:16;;;;;;;23.50;12.47;;;;;;;3.29;100.00;95292.00;5086574;28;20204;-77
2021/12/17 09:10:48;;;;;;;19.67;12.30;;;;;;;3.28;100.00;95291.19;5091352;28;20209;-78
2021/12/17 09:13:17;;;;;;;16.17;10.77;;;;;;;3.13;100.00;95277.34;5086047;28;20671;-77
2021/12/17 09:15:48;;;;;;;16.83;11.57;;;;;;;3.14;100.00;95266.13;5091901;28;20201;-77
2021/12/17 09:18:16;;;;;;;23.47;13.97;;;;;;;3.27;100.00;95273.38;5091948;28;20205;-79
2021/12/17 09:20:47;;;;;;;19.93;12.27;;;;;;;3.25;100.00;95268.41;5092224;28;20206;-77
2021/12/17 09:23:16;;;;;;;22.60;11.23;;;;;;;3.34;100.00;95270.03;5078888;28;20208;-77
2021/12/17 09:25:46;;;;;;;18.27;11.77;;;;;;;3.25;100.00;95270.97;5091467;28;20212;-78
2021/12/17 09:28:16;;;;;;;25.10;14.23;;;;;;;3.30;100.00;95273.84;5091888;28;20282;-76
2021/12/17 09:30:46;;;;;;;26.27;13.50;;;;;;;3.26;100.00;95271.78;5090292;28;20261;-75
2021/12/17 09:33:15;;;;;;;19.83;12.33;;;;;;;3.23;100.00;95272.88;5090229;28;20272;-75
2021/12/17 09:35:45;;;;;;;21.47;12.80;;;;;;;3.27;100.00;95275.94;5090661;28;20205;-75
2021/12/17 09:38:17;;;;;;;19.97;11.77;;;;;;;3.33;100.00;95270.97;5090789;28;20230;-75
2021/12/17 09:40:50;;;;;;;24.63;12.83;;;;;;;3.48;100.00;95260.88;5091346;28;20204;-76
2021/12/17 09:43:22;;;;;;;22.10;13.33;;;;;;;3.55;100.00;95264.41;5090736;28;20204;-77
2021/12/17 09:45:50;;;;;;;24.70;13.10;;;;;;;3.55;100.00;95259.25;5095658;28;20255;-76
2021/12/17 09:48:23;;;;;;;19.63;12.07;;;;;;;3.68;100.00;95258.78;5090501;28;20207;-76
2021/12/17 09:50:54;;;;;;;25.27;14.17;;;;;;;3.75;100.00;95244.34;5091296;28;20639;-77
2021/12/17 09:53:23;;;;;;;19.60;11.77;;;;;;;3.71;100.00;95236.16;5084207;28;20208;-77
2021/12/17 09:55:53;;;;;;;18.97;11.33;;;;;;;3.56;100.00;95221.53;5090599;28;20288;-76
2021/12/17 09:58:23;;;;;;;17.57;11.50;;;;;;;3.51;100.00;95228.91;5085643;28;20255;-76
2021/12/17 10:00:52;;;;;;;18.47;11.27;;;;;;;3.48;100.00;95212.06;5089597;28;20200;-74
2021/12/17 10:03:20;;;;;;;20.47;13.10;;;;;;;3.38;100.00;95204.50;5090123;28;20203;-79
2021/12/17 10:05:49;;;;;;;17.73;11.33;;;;;;;3.43;100.00;95204.81;5090277;28;20319;-74
2021/12/17 10:08:20;;;;;;;19.90;13.27;;;;;;;3.58;100.00;95209.34;5090372;28;20284;-74
2021/12/17 10:10:58;;;;;;;17.57;11.60;;;;;;;3.60;100.00;95207.41;5083095;28;20215;-74
2021/12/17 10:13:27;;;;;;;14.97;10.47;;;;;;;3.56;100.00;95190.69;5089955;28;20710;-74
2021/12/17 10:16:00;;;;;;;16.77;10.60;;;;;;;3.71;100.00;95194.22;5090939;28;20220;-75
2021/12/17 10:18:37;;;;;;;16.10;9.67;;;;;;;3.72;100.00;95190.69;5090768;28;20201;-77
2021/12/17 10:21:06;;;;;;;16.23;9.67;;;;;;;3.73;100.00;95192.28;5091128;28;20200;-82
2021/12/17 10:23:36;;;;;;;12.83;7.90;;;;;;;3.78;100.00;95183.13;5090593;28;20242;-77
2021/12/17 10:26:12;;;;;;;16.83;10.47;;;;;;;3.82;100.00;95174.13;5089455;28;20213;-75
2021/12/17 10:28:53;;;;;;;13.70;8.03;;;;;;;3.76;100.00;95163.69;5090085;28;20257;-74
2021/12/17 10:31:28;;;;;;;14.57;9.83;;;;;;;3.69;100.00;95165.31;5084179;28;20610;-74
2021/12/17 10:33:59;;;;;;;18.50;11.37;;;;;;;3.80;100.00;95164.97;5084124;28;20711;-74
2021/12/17 10:36:33;;;;;;;17.53;11.43;;;;;;;3.80;100.00;95145.22;5089963;28;20295;-76
2021/12/17 10:39:04;;;;;;;17.13;10.67;;;;;;;3.88;100.00;95140.06;5089835;28;20208;-75
2021/12/17 10:41:47;;;;;;;11.80;8.17;;;;;;;3.93;100.00;95149.84;5089629;28;20722;-76
2021/12/17 10:44:15;;;;;;;16.83;11.07;;;;;;;4.06;100.00;95128.75;5090289;28;20201;-74
2021/12/17 10:47:05;;;;;;;15.17;10.80;;;;;;;4.09;100.00;95125.84;5092801;28;20691;-74
2021/12/17 10:49:33;;;;;;;16.13;9.73;;;;;;;4.08;100.00;95130.19;5093288;28;20239;-74
2021/12/17 10:52:07;;;;;;;19.87;10.90;;;;;;;4.13;100.00;95135.63;5089546;28;20297;-74
2021/12/17 10:54:35;;;;;;;18.87;11.97;;;;;;;4.08;100.00;95125.03;5089462;28;20236;-75
2021/12/17 10:57:09;;;;;;;18.93;12.63;;;;;;;4.05;100.00;95129.72;5092875;28;20283;-74
2021/12/17 10:59:38;;;;;;;22.43;13.63;;;;;;;3.99;100.00;95129.41;5092997;28;20212;-75
2021/12/17 11:02:11;;;;;;;21.70;14.13;;;;;;;3.99;100.00;95136.31;5092991;28;20205;-74
2021/12/17 11:04:41;;;;;;;17.60;10.97;;;;;;;3.93;100.00;95136.97;5092820;28;20200;-75
2021/12/17 11:07:13;;;;;;;15.23;9.67;;;;;;;3.80;100.00;95142.66;5093022;28;20228;-75
2021/12/17 11:09:43;;;;;;;17.43;10.90;;;;;;;3.80;100.00;95136.72;5092420;28;20197;-75
2021/12/17 11:12:30;;;;;;;16.47;12.00;;;;;;;3.77;100.00;95137.03;5090487;28;20203;-76
2021/12/17 11:15:12;;;;;;;23.67;14.07;;;;;;;3.86;100.00;95128.34;5093022;28;20205;-75
2021/12/17 11:17:42;;;;;;;20.10;12.43;;;;;;;3.92;100.00;95122.53;5091054;28;20297;-75
2021/12/17 11:20:13;;;;;;;16.47;10.47;;;;;;;4.04;100.00;95110.13;5090448;28;20219;-75
2021/12/17 11:22:43;;;;;;;14.33;9.20;;;;;;;3.98;100.00;95109.81;5083678;28;20683;-76
2021/12/17 11:25:11;;;;;;;16.43;9.80;;;;;;;3.97;100.00;95110.78;5093511;28;20320;-75
2021/12/17 11:27:45;;;;;;;14.57;9.50;;;;;;;3.85;100.00;95091.56;5092741;28;20225;-75
2021/12/17 11:30:17;;;;;;;18.53;10.70;;;;;;;3.80;100.00;95095.59;5079784;28;20787;-75
2021/12/17 11:32:47;;;;;;;18.03;11.47;;;;;;;3.79;100.00;95112.78;5092668;28;20279;-75
2021/12/17 11:35:19;;;;;;;12.50;8.90;;;;;;;3.82;100.00;95091.06;5093635;28;20205;-74
2021/12/17 11:37:49;;;;;;;13.43;8.10;;;;;;;3.72;100.00;95100.75;5093329;28;20197;-76
2021/12/17 11:40:25;;;;;;;11.50;7.30;;;;;;;3.79;100.00;95087.06;5086697;28;20262;-76
2021/12/17 11:43:47;;;;;;;13.30;8.00;;;;;;;3.76;100.00;95082.25;5086930;28;20200;-76
2021/12/17 11:46:20;;;;;;;10.47;7.43;;;;;;;3.74;100.00;95085.97;5055765;28;20224;-74
2021/12/17 11:48:53;;;;;;;11.27;7.23;;;;;;;3.64;100.00;95073.28;5092263;28;20215;-74
2021/12/17 11:51:25;;;;;;;10.87;7.93;;;;;;;3.63;100.00;95068.34;5093171;28;20200;-74
2021/12/17 11:54:09;;;;;;;13.70;8.50;;;;;;;3.55;100.00;95068.38;5093381;28;20659;-74
2021/12/17 11:56:47;;;;;;;9.37;6.73;;;;;;;3.71;100.00;95073.44;5091984;28;20235;-77
2021/12/17 11:59:40;;;;;;;16.27;9.83;;;;;;;3.73;100.00;95077.44;5093039;28;20553;-76
2021/12/17 12:02:14;;;;;;;13.60;8.77;;;;;;;3.64;100.00;95069.91;5088724;28;20209;-75
2021/12/17 12:04:49;;;;;;;10.63;7.10;;;;;;;3.69;100.00;95067.69;5090539;28;20193;-76
2021/12/17 12:07:21;;;;;;;10.67;7.60;;;;;;;3.58;100.00;95065.47;5092240;28;20216;-76
2021/12/17 12:09:59;;;;;;;14.80;9.40;;;;;;;3.39;100.00;95033.22;5092945;28;20596;-75
2021/12/17 12:13:01;;;;;;;13.13;8.40;;;;;;;3.53;100.00;95063.38;5085466;28;20210;-77
2021/12/17 12:15:40;;;;;;;10.60;7.20;;;;;;;3.43;100.00;95049.94;5091670;28;20289;-75
2021/12/17 12:18:15;;;;;;;11.73;8.03;;;;;;;3.60;100.00;95061.75;5085161;28;20201;-76
2021/12/17 12:20:56;;;;;;;15.17;9.63;;;;;;;3.54;100.00;95041.06;5091226;28;20211;-76
2021/12/17 12:23:43;;;;;;;13.73;8.17;;;;;;;3.57;100.00;95044.09;5088114;28;21145;-75
2021/12/17 12:26:25;;;;;;;11.33;6.83;;;;;;;3.58;100.00;95029.50;5088597;28;20700;-78
2021/12/17 12:29:06;;;;;;;12.60;8.13;;;;;;;3.48;100.00;95021.97;5080745;28;20197;-75
2021/12/17 12:32:17;;;;;;;17.43;9.17;;;;;;;3.65;100.00;95033.00;5092667;28;20560;-76
2021/12/17 12:34:45;;;;;;;10.83;7.47;;;;;;;3.55;100.00;95019.53;5090872;28;20196;-74
2021/12/17 12:37:34;;;;;;;13.40;7.90;;;;;;;3.55;100.00;95004.13;5086927;28;20580;-75
2021/12/17 12:40:17;;;;;;;10.53;6.03;;;;;;;3.67;100.00;95036.19;5091442;28;20198;-75
2021/12/17 12:42:51;;;;;;;8.43;6.13;;;;;;;3.65;100.00;95025.28;5091704;28;20204;-75
2021/12/17 12:45:19;;;;;;;10.40;6.37;;;;;;;3.55;100.00;95014.41;5086086;28;20226;-75
2021/12/17 12:47:55;;;;;;;12.23;8.00;;;;;;;3.50;100.00;94998.66;5092435;28;20252;-75
2021/12/17 12:50:27;;;;;;;9.80;5.90;;;;;;;3.50;100.00;95016.66;5091944;28;20674;-76
2021/12/17 12:52:58;;;;;;;8.40;5.40;;;;;;;3.53;100.00;95019.69;5091360;28;20592;-76
2021/12/17 12:55:30;;;;;;;9.43;5.43;;;;;;;3.48;100.00;95016.84;5091512;28;20598;-76
2021/12/17 12:58:06;;;;;;;8.20;5.90;;;;;;;3.49;100.00;95017.63;5088089;28;20241;-76
2021/12/17 13:00:36;;;;;;;7.70;5.10;;;;;;;3.63;100.00;95009.22;5090668;28;20192;-74
2021/12/17 13:03:12;;;;;;;10.13;6.40;;;;;;;3.66;100.00;95003.75;5091812;28;20197;-74
2021/12/17 13:05:41;;;;;;;12.37;6.43;;;;;;;3.73;100.00;95015.78;5084632;28;20195;-77
2021/12/17 13:08:12;;;;;;;8.73;5.03;;;;;;;3.66;100.00;95002.00;5090803;28;20316;-76
2021/12/17 13:10:43;;;;;;;7.73;5.17;;;;;;;3.58;100.00;95024.34;5083106;28;20251;-76
2021/12/17 13:13:18;;;;;;;9.90;5.27;;;;;;;3.58;100.00;95017.44;5086079;28;20289;-76
2021/12/17 13:15:51;;;;;;;12.70;6.30;;;;;;;3.70;100.00;95013.53;5091285;28;20234;-75
2021/12/17 13:21:32;;;;;;;8.13;4.90;;;;;;;3.60;100.00;94989.00;5090731;28;20212;-74
2021/12/17 13:24:10;;;;;;;9.77;5.67;;;;;;;3.69;100.00;95011.94;5090444;28;20246;-75
2021/12/17 13:26:41;;;;;;;10.60;6.10;;;;;;;3.69;100.00;95009.38;5090573;28;20323;-74
2021/12/17 13:29:13;;;;;;;7.93;4.90;;;;;;;3.75;100.00;95015.63;5088300;28;20209;-74
2021/12/17 13:31:49;;;;;;;12.37;6.53;;;;;;;3.79;100.00;95030.53;5087965;28;20228;-74
2021/12/17 13:34:26;;;;;;;12.03;7.07;;;;;;;3.71;100.00;95028.00;5090544;28;20257;-74
2021/12/17 13:37:01;;;;;;;8.57;5.40;;;;;;;3.74;100.00;95047.41;5090852;28;20560;-74
2021/12/17 13:39:35;;;;;;;10.23;6.23;;;;;;;3.64;100.00;95039.09;5090169;28;20674;-76
2021/12/17 13:42:04;;;;;;;12.00;6.83;;;;;;;3.67;100.00;95038.75;5089043;28;20291;-75
2021/12/17 13:44:42;;;;;;;13.10;6.97;;;;;;;3.53;100.00;95019.69;5085546;28;20264;-78
2021/12/17 13:47:22;;;;;;;10.33;6.63;;;;;;;3.48;100.00;95034.00;5090279;28;20234;-75